Nearby METAR Reports

 

CYKA - Kamloops Airport
Distance from station: SSW 65km
Updated: 2021-11-28 15:00
Overcast
Overcast
 Wind from W
Wind: W 4 km/h
Temperature: 6°C
Dew Point: 4°C
Humidity: 87%
Barometer: 1012.5 hPa
Clouds: Overcast
Visibility: 32 km
Cloud details: Mostly cloudy 366 m
Overcast 3658 m
2021/11/28 23:00 CYKA 282300Z 27002KT 20SM BKN012 OVC120 06/04 A2990 RMK SC7AC1 SLP140
CWSL - Salmon Arm Autob
Distance from station: SE 90km
Updated: 2021-11-28 15:00

 Wind from NW
Wind: NW 2 km/h
Temperature: 5°C
Dew Point: 4°C
Humidity: 93%
2021/11/28 23:00 CWSL 282300Z AUTO 32001KT 05/04 RMK AO1 5002 SLP147 T00500035 50015
CYIN - Bleibler Ranch
Distance from station: W 103km
Updated: 2021-11-28 15:00
Few Clouds
Few Clouds
 Wind from SW
Wind: SW 13 km/h
Temperature: 8°C
Wind Chill: 6°C
Dew Point: 0°C
Humidity: 57%
Barometer: 1009.8 hPa
Clouds: Few Clouds
Visibility: 14 km
Cloud details: Few Clouds 3658 m
2021/11/28 23:00 CYIN 282300Z AUTO 22007KT 200V270 9SM FEW120 08/M00 A2982 RMK SLP116 DENSITY ALT 3900FT
 
CYCP - Blue River (man)
Distance from station: NNE 116km
Updated: 2021-11-28 15:00
Light rain, Mist, Overcast
Light rain, Mist, Overcast
 Wind from calm
Wind: Calm
Temperature: 0°C
Dew Point: 0°C
Humidity: 100%
Barometer: 1011.2 hPa
Summary: Light rain, Mist
Clouds: Overcast
Visibility: 4 km
Cloud details: Partly cloudy 61 m
Mostly cloudy 305 m
Overcast 1067 m
2021/11/28 23:00 CYCP 282300Z 00000KT 2 1/2SM -RA BR SCT002 BKN010 OVC035 00/00 A2986 RMK SF4SC3SC1 -RA INTMT VIS VLY E AND SW 9 SLP142
CYLW - Kelowna Airport
Distance from station: SSE 157km
Updated: 2021-11-28 15:00
Overcast
Overcast
 Wind from S
Wind: S 11 km/h
Temperature: 10°C
Wind Chill: 8°C
Dew Point: 8°C
Humidity: 88%
Barometer: 1013.9 hPa
Clouds: Overcast
Visibility: 14 km
Cloud details: Few Clouds 1097 m
Overcast 1676 m
2021/11/28 23:00 CYLW 282300Z AUTO 17006KT 100V190 9SM FEW036 OVC055 10/08 A2994 RMK SLP150
CYWL - Williams Lake Airport
Distance from station: NW 164km
Updated: 2021-11-28 15:00
Few Clouds
Few Clouds
 Wind from ESE
Wind: ESE 9 km/h
Temperature: 6°C
Wind Chill: 4°C
Dew Point: 3°C
Humidity: 81%
Barometer: 1008.8 hPa
Clouds: Few Clouds
Visibility: 24 km
Cloud details: Few Clouds 3962 m
Few Clouds 7010 m
2021/11/28 23:00 CYWL 282300Z 12005KT 15SM FEW130 FEW230 06/03 A2979 RMK AC2CI1 CI TR SLP116